Time;durP1;ratioP1;P1;durP2;ratioP2;P2;SDS_P1;SDS_P2;PMS_P1;PMS_P2;Temp;Humidity;BMP_temperature;BMP_pressure;BME280_temperature;BME280_humidity;BME280_pressure;Samples;Min_cycle;Max_cycle;Signal;HPM_P1;HPM_P2
2022/08/27 00:01:06;;;;;;;;;;;20.80;99.90;;;;;;5067331;28;19916;-85
2022/08/27 00:03:31;;;;;;;;;;;20.70;99.90;;;;;;5063145;28;19916;-86
2022/08/27 00:05:57;;;;;;;;;;;20.60;99.90;;;;;;5064320;28;19920;-87
2022/08/27 00:08:22;;;;;;;;;;;20.50;99.90;;;;;;5063189;28;19912;-86
2022/08/27 00:10:48;;;;;;;;;;;20.50;99.90;;;;;;5062667;28;20413;-85
2022/08/27 00:13:14;;;;;;;;;;;20.40;99.90;;;;;;5062966;28;19964;-86
2022/08/27 00:15:40;;;;;;;;;;;20.30;99.90;;;;;;5063776;28;19948;-87
2022/08/27 00:18:06;;;;;;;;;;;20.30;99.90;;;;;;5066347;28;20449;-86
2022/08/27 00:20:31;;;;;;;;;;;20.30;99.90;;;;;;5067146;28;20658;-86
2022/08/27 00:22:57;;;;;;;;;;;20.30;99.90;;;;;;5063078;28;20508;-83
2022/08/27 00:25:23;;;;;;;;;;;20.30;99.90;;;;;;5063519;28;19912;-84
2022/08/27 00:27:49;;;;;;;;;;;20.30;99.90;;;;;;5081865;28;19912;-83
2022/08/27 00:30:16;;;;;;;;;;;20.30;99.90;;;;;;5072767;28;19928;-84
2022/08/27 00:32:43;;;;;;;;;;;20.30;99.90;;;;;;5062541;28;19920;-83
2022/08/27 00:35:09;;;;;;;;;;;20.30;99.90;;;;;;5063193;28;19908;-83
2022/08/27 00:37:35;;;;;;;;;;;20.30;99.90;;;;;;5061948;28;19920;-83
2022/08/27 00:40:00;;;;;;;;;;;20.10;99.90;;;;;;5063733;28;19970;-83
2022/08/27 00:42:26;;;;;;;;;;;20.10;99.90;;;;;;5062682;28;19936;-83
2022/08/27 00:44:51;;;;;;;;;;;20.10;99.90;;;;;;5066769;28;19913;-83
2022/08/27 00:47:20;;;;;;;;;;;20.10;99.90;;;;;;5066394;28;19916;-83
2022/08/27 00:49:57;;;;;;;;;;;20.00;99.90;;;;;;5066998;28;20322;-83
2022/08/27 00:52:27;;;;;;;;;;;19.90;99.90;;;;;;5066700;28;19931;-83
2022/08/27 00:54:55;;;;;;;;;;;20.00;99.90;;;;;;5064547;28;20027;-84
2022/08/27 00:57:21;;;;;;;;;;;19.90;99.90;;;;;;5079166;28;20019;-84
2022/08/27 00:59:47;;;;;;;;;;;19.90;99.90;;;;;;5078232;28;20031;-84
2022/08/27 01:02:18;;;;;;;;;;;19.80;99.90;;;;;;5067047;28;19924;-84
2022/08/27 01:04:46;;;;;;;;;;;19.90;99.90;;;;;;5066988;28;20005;-84
2022/08/27 01:07:13;;;;;;;;;;;19.80;99.90;;;;;;5067184;28;19988;-83
2022/08/27 01:09:40;;;;;;;;;;;19.70;99.90;;;;;;5065268;28;20023;-83
2022/08/27 01:12:06;;;;;;;;;;;19.80;99.90;;;;;;5066851;28;19916;-84
2022/08/27 01:14:31;;;;;;;;;;;19.70;99.90;;;;;;5066323;28;19916;-82
2022/08/27 01:16:59;;;;;;;;;;;19.80;99.90;;;;;;5065765;28;19927;-81
2022/08/27 01:19:31;;;;;;;;;;;19.70;99.90;;;;;;5065853;28;19931;-83
2022/08/27 01:22:01;;;;;;;;;;;19.70;99.90;;;;;;5066261;28;19931;-82
2022/08/27 01:24:34;;;;;;;;;;;19.60;99.90;;;;;;5066378;28;20011;-82
2022/08/27 01:27:01;;;;;;;;;;;19.70;99.90;;;;;;5069122;28;19998;-82
2022/08/27 01:29:27;;;;;;;;;;;19.60;99.90;;;;;;5087139;28;19951;-82
2022/08/27 01:31:55;;;;;;;;;;;19.50;99.90;;;;;;5071118;28;19947;-87
2022/08/27 01:34:20;;;;;;;;;;;19.60;99.90;;;;;;5066184;28;19938;-87
2022/08/27 01:36:46;;;;;;;;;;;19.60;99.90;;;;;;5065732;28;19920;-85
2022/08/27 01:39:11;;;;;;;;;;;19.70;99.90;;;;;;5066214;28;19924;-82
2022/08/27 01:41:37;;;;;;;;;;;19.50;99.90;;;;;;5066097;28;19999;-82
2022/08/27 01:44:02;;;;;;;;;;;19.40;99.90;;;;;;5066030;28;19962;-83
2022/08/27 01:46:28;;;;;;;;;;;19.40;99.90;;;;;;5065867;28;19916;-83
2022/08/27 01:48:53;;;;;;;;;;;19.30;99.90;;;;;;5065265;28;19955;-83
2022/08/27 01:51:19;;;;;;;;;;;19.30;99.90;;;;;;5065181;28;19920;-83
2022/08/27 01:53:45;;;;;;;;;;;19.10;99.90;;;;;;5064911;28;19916;-82
2022/08/27 01:56:10;;;;;;;;;;;19.00;99.90;;;;;;5081062;28;19916;-81
2022/08/27 01:58:37;;;;;;;;;;;19.00;99.90;;;;;;5068135;28;20418;-83
2022/08/27 02:01:05;;;;;;;;;;;19.00;99.90;;;;;;5086067;28;19912;-82
2022/08/27 02:03:35;;;;;;;;;;;19.00;99.90;;;;;;5072504;28;19997;-82
2022/08/27 02:06:02;;;;;;;;;;;18.90;99.90;;;;;;5065673;28;20418;-82
2022/08/27 02:08:27;;;;;;;;;;;18.80;99.90;;;;;;5065530;28;19927;-82
2022/08/27 02:10:53;;;;;;;;;;;18.80;99.90;;;;;;5098038;28;19912;-82
2022/08/27 02:13:19;;;;;;;;;;;18.70;99.90;;;;;;5064666;28;20031;-82
2022/08/27 02:15:45;;;;;;;;;;;18.60;99.90;;;;;;5065453;28;20893;-82
2022/08/27 02:18:10;;;;;;;;;;;18.70;99.90;;;;;;5065504;28;20383;-82
2022/08/27 02:20:36;;;;;;;;;;;18.60;99.90;;;;;;5071555;28;19971;-82
2022/08/27 02:23:03;;;;;;;;;;;18.60;99.90;;;;;;5064685;28;20047;-83
2022/08/27 02:25:29;;;;;;;;;;;18.70;99.90;;;;;;5073399;28;19916;-82
2022/08/27 02:27:56;;;;;;;;;;;18.60;99.90;;;;;;5064999;28;19916;-82
2022/08/27 02:30:22;;;;;;;;;;;18.60;99.90;;;;;;5081464;28;19912;-82
2022/08/27 02:32:48;;;;;;;;;;;18.50;99.90;;;;;;5064698;28;19950;-82
2022/08/27 02:35:15;;;;;;;;;;;18.50;99.90;;;;;;5064995;28;20703;-82
2022/08/27 02:37:42;;;;;;;;;;;18.50;99.90;;;;;;5064566;28;19935;-82
2022/08/27 02:40:08;;;;;;;;;;;18.40;99.90;;;;;;5064844;28;20449;-85
2022/08/27 02:42:34;;;;;;;;;;;18.40;99.90;;;;;;5062690;28;19912;-84
2022/08/27 02:44:59;;;;;;;;;;;18.40;99.90;;;;;;5072972;28;19920;-84
2022/08/27 02:47:25;;;;;;;;;;;18.30;99.90;;;;;;5064020;28;19917;-84
2022/08/27 02:49:51;;;;;;;;;;;18.30;99.90;;;;;;5064995;28;19935;-84
2022/08/27 02:52:16;;;;;;;;;;;18.30;99.90;;;;;;5064046;28;19928;-82
2022/08/27 02:54:42;;;;;;;;;;;18.20;99.90;;;;;;5064282;28;20544;-81
2022/08/27 02:57:08;;;;;;;;;;;18.20;99.90;;;;;;5063785;28;19920;-82
2022/08/27 02:59:34;;;;;;;;;;;18.30;99.90;;;;;;5074134;28;20684;-78
2022/08/27 03:02:00;;;;;;;;;;;18.20;99.90;;;;;;5058500;28;19940;-77
2022/08/27 03:04:27;;;;;;;;;;;18.10;99.90;;;;;;5063591;28;19966;-77
2022/08/27 03:06:53;;;;;;;;;;;18.20;99.90;;;;;;5063635;28;19917;-78
2022/08/27 03:09:19;;;;;;;;;;;18.10;99.90;;;;;;5088255;28;19917;-77
2022/08/27 03:11:44;;;;;;;;;;;18.20;99.90;;;;;;5063344;28;19939;-78
2022/08/27 03:14:11;;;;;;;;;;;18.10;99.90;;;;;;5063982;28;20021;-77
2022/08/27 03:16:37;;;;;;;;;;;18.00;99.90;;;;;;5063716;28;19920;-77
2022/08/27 03:19:05;;;;;;;;;;;18.00;99.90;;;;;;5063635;28;19932;-77
2022/08/27 03:21:31;;;;;;;;;;;17.90;99.90;;;;;;5063938;28;19936;-77
2022/08/27 03:23:57;;;;;;;;;;;17.80;99.90;;;;;;5063826;28;20410;-77
2022/08/27 03:26:22;;;;;;;;;;;17.80;99.90;;;;;;5063828;28;19916;-78
2022/08/27 03:28:48;;;;;;;;;;;17.80;99.90;;;;;;5066250;28;20284;-78
2022/08/27 03:31:15;;;;;;;;;;;17.70;99.90;;;;;;5084784;28;20334;-78
2022/08/27 03:33:41;;;;;;;;;;;17.70;99.90;;;;;;5065812;28;19917;-78
2022/08/27 03:36:07;;;;;;;;;;;17.70;99.90;;;;;;5063089;28;20392;-78
2022/08/27 03:38:33;;;;;;;;;;;17.80;99.90;;;;;;5062818;28;20440;-78
2022/08/27 03:40:59;;;;;;;;;;;17.70;99.90;;;;;;5063543;28;19912;-78
2022/08/27 03:43:25;;;;;;;;;;;17.70;99.90;;;;;;5063577;28;19916;-78
2022/08/27 03:45:51;;;;;;;;;;;17.70;99.90;;;;;;5061501;28;19917;-78
2022/08/27 03:48:17;;;;;;;;;;;17.70;99.90;;;;;;5062933;28;20276;-78
2022/08/27 03:50:45;;;;;;;;;;;17.60;99.90;;;;;;5063139;28;19924;-78
2022/08/27 03:53:11;;;;;;;;;;;17.60;99.90;;;;;;5063286;28;19961;-80
2022/08/27 03:55:37;;;;;;;;;;;17.60;99.90;;;;;;5063277;28;20423;-78
2022/08/27 03:58:02;;;;;;;;;;;17.50;99.90;;;;;;5063207;28;20035;-86
2022/08/27 04:00:28;;;;;;;;;;;17.60;99.90;;;;;;5080166;28;19954;-84
2022/08/27 04:02:54;;;;;;;;;;;17.50;99.90;;;;;;5080698;28;20592;-83
2022/08/27 04:05:19;;;;;;;;;;;17.40;99.90;;;;;;5062909;28;20400;-86
2022/08/27 04:07:45;;;;;;;;;;;17.50;99.90;;;;;;5062722;28;20466;-85
2022/08/27 04:10:11;;;;;;;;;;;17.40;99.90;;;;;;5062657;28;19966;-81
2022/08/27 04:12:37;;;;;;;;;;;17.40;99.90;;;;;;5063283;28;19924;-85
2022/08/27 04:15:03;;;;;;;;;;;17.30;99.90;;;;;;5063373;28;20312;-85
2022/08/27 04:17:29;;;;;;;;;;;17.30;99.90;;;;;;5059893;28;19928;-84
2022/08/27 04:19:55;;;;;;;;;;;17.30;99.90;;;;;;5061542;28;20030;-85
2022/08/27 04:22:22;;;;;;;;;;;17.30;99.90;;;;;;5062187;28;19923;-82
2022/08/27 04:24:48;;;;;;;;;;;17.20;99.90;;;;;;5062906;28;20388;-82
2022/08/27 04:27:14;;;;;;;;;;;17.10;99.90;;;;;;5062791;28;19913;-83
2022/08/27 04:29:40;;;;;;;;;;;17.20;99.90;;;;;;5068364;28;19912;-82
2022/08/27 04:32:06;;;;;;;;;;;17.20;99.90;;;;;;5083552;28;19938;-84
2022/08/27 04:34:32;;;;;;;;;;;17.10;99.90;;;;;;5071787;28;20528;-87
2022/08/27 04:36:58;;;;;;;;;;;17.10;99.90;;;;;;5063020;28;19939;-86
2022/08/27 04:39:25;;;;;;;;;;;17.10;99.90;;;;;;5062920;28;19924;-86
2022/08/27 04:41:51;;;;;;;;;;;17.10;99.90;;;;;;5062528;28;19927;-85
2022/08/27 04:44:17;;;;;;;;;;;17.10;99.90;;;;;;5062857;28;19922;-86
2022/08/27 04:46:42;;;;;;;;;;;17.00;99.90;;;;;;5063004;28;19916;-83
2022/08/27 04:49:11;;;;;;;;;;;17.10;99.90;;;;;;5062077;28;20307;-85
2022/08/27 04:51:38;;;;;;;;;;;17.00;99.90;;;;;;5062127;28;19936;-83
2022/08/27 04:54:05;;;;;;;;;;;17.00;99.90;;;;;;5060839;28;19916;-83
2022/08/27 04:56:32;;;;;;;;;;;17.00;99.90;;;;;;5063048;28;19977;-88
2022/08/27 04:58:58;;;;;;;;;;;17.00;99.90;;;;;;5062292;28;19932;-79
2022/08/27 05:01:26;;;;;;;;;;;17.10;99.90;;;;;;5070934;28;19912;-79
2022/08/27 05:03:51;;;;;;;;;;;17.00;99.90;;;;;;5083473;28;20532;-78
2022/08/27 05:06:18;;;;;;;;;;;17.00;99.90;;;;;;5067359;28;19920;-80
2022/08/27 05:08:43;;;;;;;;;;;17.00;99.90;;;;;;5062145;28;19916;-78
2022/08/27 05:11:11;;;;;;;;;;;17.00;99.90;;;;;;5062704;28;19917;-78
2022/08/27 05:13:36;;;;;;;;;;;17.00;99.90;;;;;;5062965;28;19917;-77
2022/08/27 05:16:04;;;;;;;;;;;17.00;99.90;;;;;;5062738;28;19921;-81
2022/08/27 05:18:30;;;;;;;;;;;17.00;99.90;;;;;;5062618;28;19925;-78
2022/08/27 05:20:57;;;;;;;;;;;16.90;99.90;;;;;;5061487;28;20269;-79
2022/08/27 05:23:23;;;;;;;;;;;17.10;99.90;;;;;;5062628;28;19916;-78
2022/08/27 05:25:49;;;;;;;;;;;17.70;99.90;;;;;;5062758;28;19920;-78
2022/08/27 05:28:15;;;;;;;;;;;17.90;99.90;;;;;;5062324;28;19916;-78
2022/08/27 05:30:43;;;;;;;;;;;18.40;99.90;;;;;;5066565;28;19916;-79
2022/08/27 05:33:09;;;;;;;;;;;18.50;99.90;;;;;;5076972;28;19916;-78
2022/08/27 05:35:41;;;;;;;;;;;18.80;99.90;;;;;;5071071;28;19924;-78
2022/08/27 05:38:07;;;;;;;;;;;19.40;99.90;;;;;;5065954;28;20743;-79
2022/08/27 05:40:33;;;;;;;;;;;19.80;99.90;;;;;;5065976;28;19969;-79
2022/08/27 05:42:58;;;;;;;;;;;20.00;99.90;;;;;;5066627;28;20005;-78
2022/08/27 05:45:24;;;;;;;;;;;20.20;99.90;;;;;;5065844;28;19916;-78
2022/08/27 05:47:50;;;;;;;;;;;20.40;99.90;;;;;;5063134;28;19943;-78
2022/08/27 05:50:16;;;;;;;;;;;20.70;99.90;;;;;;5065632;28;19923;-78
2022/08/27 05:52:41;;;;;;;;;;;21.10;99.90;;;;;;5065248;28;20442;-78
2022/08/27 05:55:07;;;;;;;;;;;21.20;99.90;;;;;;5064047;28;19916;-79
2022/08/27 05:57:34;;;;;;;;;;;21.30;99.90;;;;;;5065141;28;19920;-79
2022/08/27 06:02:44;;;;;;;;;;;21.70;99.90;;;;;;5065312;28;19970;-78
2022/08/27 06:05:10;;;;;;;;;;;21.80;99.90;;;;;;5065549;28;19916;-77
2022/08/27 06:07:35;;;;;;;;;;;21.90;99.90;;;;;;5064946;28;20029;-77
2022/08/27 06:10:02;;;;;;;;;;;21.80;99.90;;;;;;5064850;28;19970;-77
2022/08/27 06:12:27;;;;;;;;;;;21.70;99.90;;;;;;5065717;28;20778;-76
2022/08/27 06:14:53;;;;;;;;;;;22.10;99.90;;;;;;5064747;28;20020;-82
2022/08/27 06:17:18;;;;;;;;;;;21.70;99.90;;;;;;5064603;28;19935;-83
2022/08/27 06:19:44;;;;;;;;;;;21.90;99.90;;;;;;5064945;28;19923;-82
2022/08/27 06:22:10;;;;;;;;;;;21.50;99.90;;;;;;5065416;28;20349;-83
2022/08/27 06:24:37;;;;;;;;;;;21.40;99.90;;;;;;5063779;28;20288;-78
2022/08/27 06:27:02;;;;;;;;;;;21.60;99.90;;;;;;5065167;28;19920;-78
2022/08/27 06:29:28;;;;;;;;;;;22.90;99.90;;;;;;5065726;28;20361;-78
2022/08/27 06:31:55;;;;;;;;;;;23.20;99.90;;;;;;5064412;28;19920;-78
2022/08/27 06:34:20;;;;;;;;;;;23.30;99.90;;;;;;5065062;28;19923;-77
2022/08/27 06:36:46;;;;;;;;;;;23.50;99.70;;;;;;5064338;28;20380;-77
2022/08/27 06:39:14;;;;;;;;;;;24.00;99.10;;;;;;5063499;28;19947;-77
2022/08/27 06:41:41;;;;;;;;;;;24.50;98.00;;;;;;5064000;28;19982;-77
2022/08/27 06:44:07;;;;;;;;;;;24.90;96.80;;;;;;5064108;28;19920;-77
2022/08/27 06:46:32;;;;;;;;;;;24.90;96.40;;;;;;5065026;28;19923;-78
2022/08/27 06:48:59;;;;;;;;;;;24.90;95.70;;;;;;5063640;28;19913;-77
2022/08/27 06:51:26;;;;;;;;;;;25.20;94.90;;;;;;5064687;28;19952;-78
2022/08/27 06:53:52;;;;;;;;;;;25.10;94.50;;;;;;5063058;28;19916;-78
2022/08/27 06:56:18;;;;;;;;;;;25.40;94.10;;;;;;5079172;28;19925;-78
2022/08/27 06:58:44;;;;;;;;;;;25.20;94.20;;;;;;5064074;28;20011;-79
2022/08/27 07:01:21;;;;;;;;;;;25.50;93.80;;;;;;5062052;28;20435;-79
2022/08/27 07:03:47;;;;;;;;;;;25.80;93.20;;;;;;5062977;28;20354;-79
2022/08/27 07:06:14;;;;;;;;;;;25.90;92.50;;;;;;5062855;28;20383;-79
2022/08/27 07:08:40;;;;;;;;;;;26.10;91.70;;;;;;5061396;28;19950;-79
2022/08/27 07:11:07;;;;;;;;;;;26.10;91.30;;;;;;5060978;28;20843;-79
2022/08/27 07:13:33;;;;;;;;;;;26.30;90.80;;;;;;5062338;28;19963;-80
2022/08/27 07:16:02;;;;;;;;;;;26.60;89.90;;;;;;5061857;28;19959;-80
2022/08/27 07:18:28;;;;;;;;;;;26.90;89.20;;;;;;5061786;28;19936;-80
2022/08/27 07:20:53;;;;;;;;;;;27.30;87.10;;;;;;5062487;28;19916;-80
2022/08/27 07:23:19;;;;;;;;;;;25.20;90.90;;;;;;5063562;28;19918;-80
2022/08/27 07:25:45;;;;;;;;;;;24.30;92.90;;;;;;5063031;28;19950;-81
2022/08/27 07:28:10;;;;;;;;;;;24.10;93.40;;;;;;5064241;28;19917;-80
2022/08/27 07:30:36;;;;;;;;;;;24.40;93.00;;;;;;5063795;28;19967;-79
2022/08/27 07:33:02;;;;;;;;;;;26.70;90.40;;;;;;5054209;28;20384;-80
2022/08/27 07:35:28;;;;;;;;;;;27.60;85.80;;;;;;5058576;28;20010;-80
2022/08/27 07:37:53;;;;;;;;;;;27.80;84.70;;;;;;5060622;28;20001;-81
2022/08/27 07:40:19;;;;;;;;;;;28.70;81.60;;;;;;5056082;28;19970;-82
2022/08/27 07:45:29;;;;;;;;;;;29.10;80.00;;;;;;5048441;28;20354;-82
2022/08/27 07:47:54;;;;;;;;;;;29.10;77.60;;;;;;5051454;28;19917;-81
2022/08/27 07:50:22;;;;;;;;;;;28.00;78.70;;;;;;5062154;28;19924;-82
2022/08/27 07:52:49;;;;;;;;;;;28.60;77.40;;;;;;5063393;28;19928;-84
2022/08/27 07:55:14;;;;;;;;;;;30.00;75.50;;;;;;5068157;28;20378;-83
2022/08/27 07:57:40;;;;;;;;;;;30.80;73.00;;;;;;5063117;28;19920;-79
2022/08/27 08:00:09;;;;;;;;;;;31.40;71.00;;;;;;5061963;28;19922;-78
2022/08/27 08:02:35;;;;;;;;;;;30.60;70.20;;;;;;5063542;28;20711;-78
2022/08/27 08:05:02;;;;;;;;;;;31.30;69.40;;;;;;5061369;28;19916;-77
2022/08/27 08:07:27;;;;;;;;;;;31.30;68.70;;;;;;5063714;28;19939;-77
2022/08/27 08:09:54;;;;;;;;;;;31.30;68.40;;;;;;5063401;28;19922;-77
2022/08/27 08:12:19;;;;;;;;;;;30.90;69.60;;;;;;5062719;28;19963;-78
2022/08/27 08:14:45;;;;;;;;;;;32.00;67.40;;;;;;5062741;28;20018;-77
2022/08/27 08:17:11;;;;;;;;;;;32.10;65.90;;;;;;5062528;28;20450;-77
2022/08/27 08:19:37;;;;;;;;;;;32.40;64.40;;;;;;5063016;28;19929;-77
2022/08/27 08:22:02;;;;;;;;;;;32.20;63.90;;;;;;5062646;28;19916;-77
2022/08/27 08:24:28;;;;;;;;;;;32.20;64.20;;;;;;5063156;28;20288;-77
2022/08/27 08:26:53;;;;;;;;;;;33.20;62.50;;;;;;5062855;28;20481;-77
2022/08/27 08:29:19;;;;;;;;;;;33.20;61.00;;;;;;5062999;28;19916;-77
2022/08/27 08:31:45;;;;;;;;;;;33.30;61.50;;;;;;5062936;28;20384;-77
2022/08/27 08:34:11;;;;;;;;;;;33.90;59.00;;;;;;5062992;28;20288;-77
2022/08/27 08:36:36;;;;;;;;;;;34.60;59.30;;;;;;5063595;28;19923;-77
2022/08/27 08:39:02;;;;;;;;;;;35.20;58.90;;;;;;5061913;28;20361;-77
2022/08/27 08:41:37;;;;;;;;;;;35.70;56.80;;;;;;5063011;28;19927;-77
2022/08/27 08:44:08;;;;;;;;;;;36.00;58.40;;;;;;5062244;28;19916;-77
2022/08/27 08:46:46;;;;;;;;;;;35.90;57.10;;;;;;5059986;28;20392;-77
2022/08/27 08:49:18;;;;;;;;;;;35.10;56.80;;;;;;5062392;28;20345;-77
2022/08/27 08:51:44;;;;;;;;;;;35.50;56.10;;;;;;5062879;28;20031;-77
2022/08/27 08:54:14;;;;;;;;;;;35.80;57.40;;;;;;5062434;28;20400;-77
2022/08/27 08:56:51;;;;;;;;;;;35.80;57.30;;;;;;5062352;28;20489;-77
2022/08/27 08:59:20;;;;;;;;;;;36.70;55.50;;;;;;5061866;28;20037;-83
2022/08/27 09:01:47;;;;;;;;;;;37.30;54.10;;;;;;5062468;28;19986;-82
2022/08/27 09:04:12;;;;;;;;;;;36.80;53.20;;;;;;5063678;28;19924;-82
2022/08/27 09:06:48;;;;;;;;;;;37.00;54.00;;;;;;5066686;28;19912;-82
2022/08/27 09:09:13;;;;;;;;;;;36.90;53.60;;;;;;5066037;28;20515;-82
2022/08/27 09:11:45;;;;;;;;;;;35.60;54.40;;;;;;5066463;28;19959;-82
2022/08/27 09:14:10;;;;;;;;;;;35.50;54.60;;;;;;5064506;28;19923;-82
2022/08/27 09:16:37;;;;;;;;;;;35.30;55.10;;;;;;5065164;28;19967;-81
2022/08/27 09:19:05;;;;;;;;;;;35.10;53.80;;;;;;5065929;28;19924;-83
2022/08/27 09:21:48;;;;;;;;;;;35.30;54.20;;;;;;5065783;28;20349;-83
2022/08/27 09:24:13;;;;;;;;;;;36.80;53.70;;;;;;5063730;28;19916;-82
2022/08/27 09:26:40;;;;;;;;;;;36.40;50.70;;;;;;5066516;28;19969;-84
2022/08/27 09:29:20;;;;;;;;;;;35.00;52.80;;;;;;5066243;28;19970;-82
2022/08/27 09:31:54;;;;;;;;;;;36.40;52.40;;;;;;5063165;28;20607;-83
2022/08/27 09:34:20;;;;;;;;;;;36.70;53.00;;;;;;5065625;28;20565;-82
2022/08/27 09:36:54;;;;;;;;;;;36.00;51.30;;;;;;5064312;28;20581;-84
2022/08/27 09:39:26;;;;;;;;;;;36.80;52.00;;;;;;5065808;28;20073;-83
2022/08/27 09:41:51;;;;;;;;;;;35.80;51.40;;;;;;5065863;28;20007;-84
2022/08/27 09:44:19;;;;;;;;;;;37.50;51.90;;;;;;5065501;28;20035;-83
2022/08/27 09:47:11;;;;;;;;;;;37.30;50.70;;;;;;5065577;28;20042;-83
2022/08/27 09:49:37;;;;;;;;;;;37.40;52.70;;;;;;5062402;28;19923;-83
2022/08/27 09:52:03;;;;;;;;;;;36.80;50.20;;;;;;5065209;28;20285;-83
2022/08/27 09:54:28;;;;;;;;;;;37.40;51.40;;;;;;5064941;28;19923;-84
2022/08/27 09:56:54;;;;;;;;;;;37.30;49.80;;;;;;5065003;28;20412;-82
2022/08/27 09:59:25;;;;;;;;;;;37.50;51.10;;;;;;5065562;28;19924;-82
2022/08/27 10:01:59;;;;;;;;;;;37.30;50.00;;;;;;5065081;28;19948;-83
2022/08/27 10:04:32;;;;;;;;;;;36.70;49.30;;;;;;5065286;28;19917;-82
2022/08/27 10:06:57;;;;;;;;;;;36.50;50.50;;;;;;5064066;28;19921;-82
2022/08/27 10:09:45;;;;;;;;;;;34.30;50.00;;;;;;5065027;28;19917;-82
2022/08/27 10:12:18;;;;;;;;;;;32.50;52.00;;;;;;5063859;28;20018;-82
2022/08/27 10:14:46;;;;;;;;;;;33.10;51.80;;;;;;5064763;28;19925;-82
2022/08/27 10:17:30;;;;;;;;;;;32.40;51.80;;;;;;5063498;28;19977;-82
2022/08/27 10:19:56;;;;;;;;;;;32.10;53.50;;;;;;5065543;28;19971;-82
2022/08/27 10:22:40;;;;;;;;;;;32.80;54.00;;;;;;5065247;28;19916;-83
2022/08/27 10:25:12;;;;;;;;;;;32.20;53.50;;;;;;5064659;28;19927;-83
2022/08/27 10:27:56;;;;;;;;;;;31.20;54.30;;;;;;5064822;28;19916;-82
2022/08/27 10:30:31;;;;;;;;;;;30.40;55.10;;;;;;5065060;28;19916;-83
2022/08/27 10:33:15;;;;;;;;;;;30.20;55.60;;;;;;5056926;28;19916;-83
2022/08/27 10:35:56;;;;;;;;;;;31.50;55.40;;;;;;5064406;28;19916;-82
2022/08/27 10:38:22;;;;;;;;;;;31.30;55.20;;;;;;5063887;28;20028;-83
2022/08/27 10:40:55;;;;;;;;;;;30.90;54.20;;;;;;5064155;28;20098;-82
2022/08/27 10:43:39;;;;;;;;;;;31.20;55.00;;;;;;5063814;28;19916;-83
2022/08/27 10:46:17;;;;;;;;;;;30.60;55.70;;;;;;5064337;28;20019;-83
2022/08/27 10:49:03;;;;;;;;;;;30.00;53.30;;;;;;5064014;28;19993;-84
2022/08/27 10:52:04;;;;;;;;;;;30.30;54.60;;;;;;5052268;28;20393;-81
2022/08/27 10:54:33;;;;;;;;;;;30.80;55.70;;;;;;5021609;28;19966;-82
2022/08/27 10:57:15;;;;;;;;;;;29.90;53.70;;;;;;5023285;28;20436;-82
2022/08/27 10:59:43;;;;;;;;;;;29.70;54.50;;;;;;5022959;28;20005;-81
2022/08/27 11:02:11;;;;;;;;;;;29.70;51.60;;;;;;5021054;28;19980;-81
2022/08/27 11:04:44;;;;;;;;;;;30.00;53.20;;;;;;5021535;28;19921;-81
2022/08/27 11:07:16;;;;;;;;;;;30.70;53.50;;;;;;5021071;28;19917;-82
2022/08/27 11:10:00;;;;;;;;;;;30.40;52.20;;;;;;5021079;28;20308;-82
2022/08/27 11:12:36;;;;;;;;;;;30.50;51.90;;;;;;5020223;28;19917;-81
2022/08/27 11:15:07;;;;;;;;;;;30.00;52.20;;;;;;5034837;28;19964;-81
2022/08/27 11:17:38;;;;;;;;;;;30.50;51.70;;;;;;5018520;28;19927;-82
2022/08/27 11:20:05;;;;;;;;;;;30.60;50.00;;;;;;5019390;28;19932;-81
2022/08/27 11:22:51;;;;;;;;;;;31.10;51.00;;;;;;5020270;28;19917;-81
2022/08/27 11:25:19;;;;;;;;;;;30.70;50.00;;;;;;5014433;28;20025;-83
2022/08/27 11:27:46;;;;;;;;;;;31.00;52.00;;;;;;5023636;28;19923;-83
2022/08/27 11:30:21;;;;;;;;;;;30.90;52.20;;;;;;5057528;28;19999;-84
2022/08/27 11:33:05;;;;;;;;;;;30.60;52.50;;;;;;5055873;28;19923;-86
2022/08/27 11:35:42;;;;;;;;;;;30.80;50.80;;;;;;5056477;28;19928;-84
2022/08/27 11:38:26;;;;;;;;;;;30.40;52.60;;;;;;5059817;28;20053;-82
2022/08/27 11:40:51;;;;;;;;;;;30.20;50.40;;;;;;5060933;28;20041;-83
2022/08/27 11:43:22;;;;;;;;;;;30.00;50.60;;;;;;5061422;28;19936;-83
2022/08/27 11:45:58;;;;;;;;;;;29.90;50.50;;;;;;5061499;28;19917;-84
2022/08/27 11:48:24;;;;;;;;;;;29.30;50.90;;;;;;5059288;28;19924;-85
2022/08/27 11:50:56;;;;;;;;;;;29.10;51.60;;;;;;5059646;28;19928;-86
2022/08/27 11:53:32;;;;;;;;;;;28.80;52.70;;;;;;5056750;28;20300;-86
2022/08/27 11:56:09;;;;;;;;;;;29.20;52.50;;;;;;5057442;28;20735;-84
2022/08/27 11:58:34;;;;;;;;;;;29.00;51.90;;;;;;5059042;28;19920;-78
2022/08/27 12:01:01;;;;;;;;;;;28.70;52.60;;;;;;5060590;28;19917;-78
2022/08/27 12:03:31;;;;;;;;;;;28.40;52.70;;;;;;5060505;28;19916;-77
2022/08/27 12:05:56;;;;;;;;;;;28.70;53.10;;;;;;5060888;28;19912;-78
2022/08/27 12:08:25;;;;;;;;;;;29.20;52.70;;;;;;5060341;28;20304;-77
2022/08/27 12:11:03;;;;;;;;;;;29.60;51.60;;;;;;5060294;28;20687;-77
2022/08/27 12:13:52;;;;;;;;;;;29.80;52.00;;;;;;5058304;28;20003;-77
2022/08/27 12:16:36;;;;;;;;;;;29.80;50.60;;;;;;5017359;28;20444;-77
2022/08/27 12:19:05;;;;;;;;;;;29.10;51.40;;;;;;5018312;28;20414;-78
2022/08/27 12:21:33;;;;;;;;;;;29.40;51.60;;;;;;5017239;28;19951;-77
2022/08/27 12:24:08;;;;;;;;;;;29.30;50.40;;;;;;5018571;28;19913;-77
2022/08/27 12:26:35;;;;;;;;;;;29.40;50.70;;;;;;5000822;28;20553;-77
2022/08/27 12:29:23;;;;;;;;;;;29.60;50.30;;;;;;5018620;28;20411;-77
2022/08/27 12:31:54;;;;;;;;;;;29.70;51.30;;;;;;5018315;28;19917;-78
2022/08/27 12:34:22;;;;;;;;;;;29.60;49.20;;;;;;5017662;28;19917;-78
2022/08/27 12:36:49;;;;;;;;;;;29.60;49.40;;;;;;5018492;28;19921;-77
2022/08/27 12:39:16;;;;;;;;;;;29.70;49.90;;;;;;5002888;28;20295;-78
2022/08/27 12:41:47;;;;;;;;;;;29.70;49.80;;;;;;5023330;28;19924;-77
2022/08/27 12:44:15;;;;;;;;;;;29.40;51.10;;;;;;5022095;28;19935;-77
2022/08/27 12:46:46;;;;;;;;;;;29.80;51.20;;;;;;5021099;28;19928;-78
2022/08/27 12:49:14;;;;;;;;;;;29.70;51.00;;;;;;5023180;28;19917;-77
2022/08/27 12:51:40;;;;;;;;;;;29.70;50.90;;;;;;5023619;28;19944;-77
2022/08/27 12:54:25;;;;;;;;;;;30.10;53.40;;;;;;5058530;28;19916;-78
2022/08/27 12:56:50;;;;;;;;;;;30.00;52.60;;;;;;5063474;28;20024;-78
2022/08/27 12:59:16;;;;;;;;;;;30.00;51.90;;;;;;5059943;28;19925;-81
2022/08/27 13:02:00;;;;;;;;;;;29.70;51.50;;;;;;5066210;28;19960;-83
2022/08/27 13:04:29;;;;;;;;;;;29.10;51.50;;;;;;5066104;28;19924;-82
2022/08/27 13:06:54;;;;;;;;;;;29.30;51.80;;;;;;5063642;28;20031;-83
2022/08/27 13:09:31;;;;;;;;;;;29.50;51.70;;;;;;5064982;28;19918;-82
2022/08/27 13:11:58;;;;;;;;;;;29.70;52.90;;;;;;5079299;28;19970;-81
2022/08/27 13:14:25;;;;;;;;;;;29.60;52.40;;;;;;5062750;28;20599;-82
2022/08/27 13:16:56;;;;;;;;;;;29.40;52.30;;;;;;5053070;28;19916;-82
2022/08/27 13:19:33;;;;;;;;;;;29.00;51.80;;;;;;5078592;28;19924;-81
2022/08/27 13:22:00;;;;;;;;;;;29.00;52.80;;;;;;5065728;28;20375;-82
2022/08/27 13:24:35;;;;;;;;;;;29.00;52.60;;;;;;5054768;28;19917;-82
2022/08/27 13:27:03;;;;;;;;;;;29.30;53.70;;;;;;5058743;28;20380;-81
2022/08/27 13:29:28;;;;;;;;;;;28.90;52.30;;;;;;5062295;28;20380;-82
2022/08/27 13:31:55;;;;;;;;;;;29.20;53.40;;;;;;5064509;28;19927;-82
2022/08/27 13:34:22;;;;;;;;;;;29.40;54.00;;;;;;5061346;28;19959;-82
2022/08/27 13:36:58;;;;;;;;;;;29.30;52.50;;;;;;5063318;28;20315;-81
2022/08/27 13:39:25;;;;;;;;;;;29.40;54.10;;;;;;5055964;28;20007;-81
2022/08/27 13:41:50;;;;;;;;;;;29.20;52.50;;;;;;5065004;28;19916;-82
2022/08/27 13:44:19;;;;;;;;;;;29.20;53.00;;;;;;5057189;28;19962;-82
2022/08/27 13:46:49;;;;;;;;;;;29.50;52.70;;;;;;5062716;28;19944;-82
2022/08/27 13:49:17;;;;;;;;;;;29.40;53.40;;;;;;5058896;28;19928;-83
2022/08/27 13:51:44;;;;;;;;;;;29.40;52.30;;;;;;5065136;28;19928;-83
2022/08/27 13:54:14;;;;;;;;;;;29.40;53.30;;;;;;5058827;28;20707;-82
2022/08/27 13:56:46;;;;;;;;;;;29.30;52.40;;;;;;5065159;28;19917;-82
2022/08/27 13:59:13;;;;;;;;;;;29.60;53.70;;;;;;5065972;28;19924;-78
2022/08/27 14:01:52;;;;;;;;;;;29.70;53.50;;;;;;5064712;28;19916;-78
2022/08/27 14:04:23;;;;;;;;;;;29.40;51.70;;;;;;5059672;28;20697;-78
2022/08/27 14:06:49;;;;;;;;;;;29.20;51.10;;;;;;5062980;28;19912;-77
2022/08/27 14:09:20;;;;;;;;;;;29.00;51.80;;;;;;5058069;28;20084;-78
2022/08/27 14:11:46;;;;;;;;;;;29.00;53.30;;;;;;5056313;28;19916;-77
2022/08/27 14:14:13;;;;;;;;;;;29.10;52.20;;;;;;5056577;28;19923;-78
2022/08/27 14:16:39;;;;;;;;;;;29.20;53.00;;;;;;5063583;28;19916;-78
2022/08/27 14:19:22;;;;;;;;;;;29.20;52.80;;;;;;5063638;28;19958;-77
2022/08/27 14:21:48;;;;;;;;;;;29.20;51.20;;;;;;5064545;28;19923;-78
2022/08/27 14:24:13;;;;;;;;;;;29.00;51.70;;;;;;5064451;28;19912;-77
2022/08/27 14:26:39;;;;;;;;;;;29.00;51.80;;;;;;5062991;28;20584;-78
2022/08/27 14:29:04;;;;;;;;;;;29.10;51.20;;;;;;5061319;28;19964;-78